Time;durP1;ratioP1;P1;durP2;ratioP2;P2;SDS_P1;SDS_P2;PMS_P1;PMS_P2;Temp;Humidity;BMP_temperature;BMP_pressure;BME280_temperature;BME280_humidity;BME280_pressure;Samples;Min_cycle;Max_cycle;Signal;HPM_P1;HPM_P2
2023/05/28 00:00:08;;;;;;;20.05;7.47;;;13.80;99.90;;;;;;5046359;28;20044;-62
2023/05/28 00:02:34;;;;;;;17.02;7.15;;;13.80;99.90;;;;;;5063857;28;20116;-62
2023/05/28 00:05:00;;;;;;;19.67;6.68;;;13.70;99.90;;;;;;5059788;28;20121;-62
2023/05/28 00:07:28;;;;;;;18.08;7.20;;;13.70;99.90;;;;;;5067900;28;20043;-62
2023/05/28 00:09:55;;;;;;;22.65;6.80;;;13.70;99.90;;;;;;5061292;28;20151;-62
2023/05/28 00:12:21;;;;;;;23.63;6.95;;;13.70;99.90;;;;;;5055055;28;20048;-62
2023/05/28 00:14:47;;;;;;;18.95;7.22;;;13.60;99.90;;;;;;5050644;28;20479;-62
2023/05/28 00:17:13;;;;;;;19.40;6.95;;;13.70;99.90;;;;;;5056694;28;20041;-62
2023/05/28 00:19:39;;;;;;;14.77;6.80;;;13.60;99.90;;;;;;5053956;28;20110;-62
2023/05/28 00:22:05;;;;;;;19.08;6.80;;;13.60;99.90;;;;;;5061273;28;20483;-63
2023/05/28 00:24:30;;;;;;;19.45;7.20;;;13.60;99.90;;;;;;5050881;28;20045;-63
2023/05/28 00:26:56;;;;;;;19.67;6.68;;;13.50;99.90;;;;;;5061118;28;20517;-62
2023/05/28 00:29:24;;;;;;;21.83;7.05;;;13.50;99.90;;;;;;5061549;28;20032;-62
2023/05/28 00:31:51;;;;;;;18.38;6.72;;;13.50;99.90;;;;;;5066816;22;20078;-60
2023/05/28 00:34:16;;;;;;;21.88;6.68;;;13.40;99.90;;;;;;5052355;28;20463;-60
2023/05/28 00:36:42;;;;;;;18.27;7.00;;;13.40;99.90;;;;;;5035867;28;20120;-60
2023/05/28 00:39:07;;;;;;;18.17;6.60;;;13.40;99.90;;;;;;5018819;28;20034;-60
2023/05/28 00:41:35;;;;;;;20.60;7.47;;;13.40;99.90;;;;;;5033160;28;20037;-61
2023/05/28 00:44:02;;;;;;;17.70;6.93;;;13.30;99.90;;;;;;5036147;28;20387;-61
2023/05/28 00:46:27;;;;;;;19.48;6.97;;;13.30;99.90;;;;;;5044981;28;20037;-62
2023/05/28 00:48:53;;;;;;;22.02;7.05;;;13.30;99.90;;;;;;5028854;28;20072;-63
2023/05/28 00:51:19;;;;;;;20.63;7.07;;;13.30;99.90;;;;;;5034858;28;20064;-61
2023/05/28 00:53:45;;;;;;;15.77;6.80;;;13.20;99.90;;;;;;5019789;28;20483;-61
2023/05/28 00:56:11;;;;;;;20.65;6.80;;;13.20;99.90;;;;;;5037453;28;20072;-60
2023/05/28 00:58:40;;;;;;;20.40;7.13;;;13.10;99.90;;;;;;5036965;28;20061;-61
2023/05/28 01:01:09;;;;;;;17.05;6.70;;;13.10;99.90;;;;;;5014853;28;20045;-61
2023/05/28 01:03:39;;;;;;;22.15;7.07;;;13.00;99.90;;;;;;5033406;28;20080;-66
2023/05/28 01:06:12;;;;;;;17.73;6.85;;;13.10;99.90;;;;;;5022370;28;20108;-61
2023/05/28 01:08:38;;;;;;;15.95;6.68;;;13.00;99.90;;;;;;5036964;28;20333;-61
2023/05/28 01:11:11;;;;;;;20.65;7.35;;;13.10;99.90;;;;;;5023725;28;20147;-61
2023/05/28 01:13:38;;;;;;;20.45;7.50;;;13.00;99.90;;;;;;5037086;28;20036;-61
2023/05/28 01:16:04;;;;;;;18.33;7.38;;;13.00;99.90;;;;;;5004245;28;20124;-67
2023/05/28 01:18:31;;;;;;;25.17;7.72;;;13.00;99.90;;;;;;5021965;28;20041;-66
2023/05/28 01:21:03;;;;;;;20.20;6.90;;;12.90;99.90;;;;;;5034605;28;20086;-61
2023/05/28 01:23:32;;;;;;;;;;;13.00;99.90;;;;;;5046240;28;20040;-60
2023/05/28 01:25:59;;;;;;;20.77;7.75;;;12.90;99.90;;;;;;5048564;28;19936;-66
2023/05/28 01:28:25;;;;;;;21.27;7.53;;;12.90;99.90;;;;;;5020660;28;20380;-61
2023/05/28 01:30:52;;;;;;;17.85;6.93;;;12.80;99.90;;;;;;5040448;28;20505;-61
2023/05/28 01:33:21;;;;;;;20.92;7.28;;;12.80;99.90;;;;;;5043269;28;20041;-61
2023/05/28 01:35:47;;;;;;;17.88;6.78;;;12.80;99.90;;;;;;5032581;28;20041;-62
2023/05/28 01:38:14;;;;;;;17.33;6.90;;;12.80;99.90;;;;;;5036069;28;20033;-64
2023/05/28 01:40:43;;;;;;;19.27;7.28;;;12.80;99.90;;;;;;5012313;28;20053;-66
2023/05/28 01:43:08;;;;;;;21.33;8.40;;;12.70;99.90;;;;;;5040782;28;20488;-64
2023/05/28 01:45:34;;;;;;;19.77;7.32;;;12.80;99.90;;;;;;5039591;28;20090;-60
2023/05/28 01:48:00;;;;;;;20.52;7.68;;;12.80;99.90;;;;;;5016280;28;20049;-60
2023/05/28 01:50:26;;;;;;;17.38;6.88;;;12.70;99.90;;;;;;5032656;28;20045;-60
2023/05/28 01:52:52;;;;;;;20.15;7.22;;;12.70;99.90;;;;;;5027346;28;20487;-61
2023/05/28 01:55:17;;;;;;;17.75;6.75;;;12.70;99.90;;;;;;5022185;28;20045;-62
2023/05/28 01:57:43;;;;;;;16.83;7.72;;;12.70;99.90;;;;;;5032608;28;20033;-64
2023/05/28 02:00:10;;;;;;;19.05;7.40;;;12.70;99.90;;;;;;5043526;28;20043;-61
2023/05/28 02:02:36;;;;;;;20.33;6.75;;;12.70;99.90;;;;;;5033084;28;20488;-61
2023/05/28 02:05:02;;;;;;;18.52;6.88;;;12.70;99.90;;;;;;5035132;28;20039;-61
2023/05/28 02:07:27;;;;;;;21.15;6.75;;;12.70;99.90;;;;;;5029068;28;20076;-61
2023/05/28 02:09:53;;;;;;;21.95;7.40;;;12.70;99.90;;;;;;5040529;28;20061;-64
2023/05/28 02:12:19;;;;;;;21.52;7.28;;;12.70;99.90;;;;;;5043975;28;20036;-61
2023/05/28 02:14:45;;;;;;;22.65;7.65;;;12.70;99.90;;;;;;5012895;28;20040;-61
2023/05/28 02:17:12;;;;;;;17.23;6.70;;;12.40;99.90;;;;;;5040098;28;20025;-61
2023/05/28 02:19:37;;;;;;;17.67;7.20;;;12.60;99.90;;;;;;5037260;28;20111;-64
2023/05/28 02:22:11;;;;;;;21.73;7.60;;;12.60;99.90;;;;;;5040252;28;20087;-61
2023/05/28 02:24:40;;;;;;;17.20;7.30;;;12.60;99.90;;;;;;5043162;28;20061;-61
2023/05/28 02:27:07;;;;;;;16.83;6.97;;;12.60;99.90;;;;;;5036571;28;20091;-62
2023/05/28 02:29:33;;;;;;;19.85;7.35;;;12.60;99.90;;;;;;5030309;28;20143;-61
2023/05/28 02:32:00;;;;;;;21.08;7.50;;;12.60;99.90;;;;;;5016721;28;20097;-63
2023/05/28 02:34:28;;;;;;;24.50;7.05;;;12.60;99.90;;;;;;5029481;28;20087;-62
2023/05/28 02:36:56;;;;;;;17.77;7.20;;;12.60;99.90;;;;;;5013666;28;20045;-61
2023/05/28 02:39:23;;;;;;;16.60;7.07;;;12.60;99.90;;;;;;5041578;28;20132;-63
2023/05/28 02:41:48;;;;;;;18.85;7.57;;;12.60;99.90;;;;;;5035814;28;20037;-61
2023/05/28 02:44:14;;;;;;;18.90;7.40;;;12.50;99.90;;;;;;5034495;28;20138;-62
2023/05/28 02:46:40;;;;;;;18.02;7.25;;;12.60;99.90;;;;;;5023552;28;20076;-65
2023/05/28 02:49:06;;;;;;;16.58;7.70;;;12.60;99.90;;;;;;5042518;28;20032;-61
2023/05/28 02:51:32;;;;;;;16.83;7.43;;;12.50;99.90;;;;;;5032189;28;20041;-61
2023/05/28 02:53:57;;;;;;;18.40;7.03;;;12.60;99.90;;;;;;5017294;28;20045;-68
2023/05/28 02:56:23;;;;;;;23.75;8.13;;;12.50;99.90;;;;;;5034646;28;20073;-61
2023/05/28 02:58:49;;;;;;;20.23;7.97;;;12.50;99.90;;;;;;5032226;28;20063;-61
2023/05/28 03:01:15;;;;;;;21.23;7.65;;;12.50;99.90;;;;;;5013160;28;20041;-61
2023/05/28 03:03:40;;;;;;;22.10;7.88;;;12.50;99.90;;;;;;5023671;28;20033;-61
2023/05/28 03:06:07;;;;;;;18.00;7.35;;;12.50;99.90;;;;;;5021480;28;20441;-60
2023/05/28 03:08:32;;;;;;;17.17;7.30;;;12.50;99.90;;;;;;5024493;28;20033;-61
2023/05/28 03:10:58;;;;;;;20.80;6.55;;;12.50;99.90;;;;;;5034354;28;20048;-61
2023/05/28 03:13:24;;;;;;;19.42;6.65;;;12.50;99.90;;;;;;5021005;28;20033;-61
2023/05/28 03:15:50;;;;;;;19.02;6.68;;;12.40;99.90;;;;;;5014411;28;20045;-61
2023/05/28 03:18:15;;;;;;;19.08;6.57;;;12.40;99.90;;;;;;5044057;28;20037;-61
2023/05/28 03:20:41;;;;;;;19.95;7.57;;;12.40;99.90;;;;;;5012901;28;20171;-66
2023/05/28 03:23:07;;;;;;;19.42;7.30;;;12.40;99.90;;;;;;5042877;28;20041;-65
2023/05/28 03:25:33;;;;;;;17.85;6.40;;;12.40;99.90;;;;;;5032464;28;20483;-61
2023/05/28 03:27:59;;;;;;;18.90;6.68;;;11.80;99.90;;;;;;5024335;28;21498;-61
2023/05/28 03:30:24;;;;;;;16.60;7.10;;;12.30;99.90;;;;;;5024268;28;20132;-61
2023/05/28 03:32:50;;;;;;;17.65;6.80;;;12.30;99.90;;;;;;5024247;28;20487;-61
2023/05/28 03:35:16;;;;;;;19.73;7.35;;;12.30;99.90;;;;;;5030647;28;20398;-61
2023/05/28 03:37:42;;;;;;;22.83;7.05;;;12.30;99.90;;;;;;5039199;28;20116;-61
2023/05/28 03:40:08;;;;;;;22.63;7.55;;;12.30;99.90;;;;;;5031645;28;20121;-65
2023/05/28 03:42:34;;;;;;;19.20;6.82;;;12.30;99.90;;;;;;5038468;28;20040;-62
2023/05/28 03:45:00;;;;;;;16.55;7.13;;;12.30;99.90;;;;;;5033009;28;20048;-61
2023/05/28 03:47:30;;;;;;;21.75;7.07;;;12.30;99.90;;;;;;5031057;28;20041;-61
2023/05/28 03:49:56;;;;;;;22.77;7.60;;;12.30;99.90;;;;;;5014829;28;20050;-64
2023/05/28 03:52:21;;;;;;;22.42;7.28;;;12.40;99.90;;;;;;5037074;28;20045;-66
2023/05/28 03:54:47;;;;;;;19.77;7.50;;;12.30;99.90;;;;;;5016504;28;20045;-61
2023/05/28 03:57:13;;;;;;;17.65;6.63;;;12.30;99.90;;;;;;5039290;28;20033;-61
2023/05/28 03:59:38;;;;;;;20.60;6.80;;;12.30;99.90;;;;;;5034645;28;20163;-62
2023/05/28 04:02:04;;;;;;;16.08;7.10;;;12.30;99.90;;;;;;5031134;28;20387;-65
2023/05/28 04:04:30;;;;;;;18.42;6.90;;;12.40;99.90;;;;;;5034031;28;20061;-65
2023/05/28 04:06:56;;;;;;;21.00;7.25;;;12.40;99.90;;;;;;5042587;28;20038;-62
2023/05/28 04:09:22;;;;;;;23.58;7.47;;;12.30;99.90;;;;;;5040561;28;20060;-61
2023/05/28 04:11:48;;;;;;;18.50;7.32;;;12.30;99.90;;;;;;5037644;28;20041;-63
2023/05/28 04:14:14;;;;;;;18.75;7.63;;;12.30;99.90;;;;;;5034276;28;20037;-61
2023/05/28 04:16:39;;;;;;;18.17;7.35;;;12.30;99.90;;;;;;5033857;28;20034;-61
2023/05/28 04:19:05;;;;;;;18.80;7.18;;;12.30;99.90;;;;;;5002158;28;20422;-61
2023/05/28 04:21:31;;;;;;;20.60;6.93;;;12.30;99.90;;;;;;5021015;28;20117;-61
2023/05/28 04:23:57;;;;;;;16.70;6.82;;;12.30;99.90;;;;;;5042068;28;20041;-62
2023/05/28 04:26:23;;;;;;;18.10;7.22;;;12.30;99.90;;;;;;5040409;28;20044;-64
2023/05/28 04:28:50;;;;;;;17.77;7.00;;;12.30;99.90;;;;;;5017566;28;20395;-61
2023/05/28 04:31:16;;;;;;;18.20;6.97;;;12.20;99.90;;;;;;5019957;28;20041;-61
2023/05/28 04:33:44;;;;;;;17.50;6.78;;;12.20;99.90;;;;;;5042923;28;20037;-63
2023/05/28 04:36:13;;;;;;;18.38;6.75;;;12.20;99.90;;;;;;5021091;28;20095;-61
2023/05/28 04:38:39;;;;;;;15.70;6.65;;;12.20;99.90;;;;;;5035238;28;20037;-62
2023/05/28 04:41:05;;;;;;;21.40;6.50;;;12.20;99.90;;;;;;5040361;28;20037;-62
2023/05/28 04:43:32;;;;;;;20.40;7.72;;;12.20;99.90;;;;;;5033952;28;20051;-61
2023/05/28 04:45:58;;;;;;;20.85;7.90;;;12.20;99.90;;;;;;5025539;28;20395;-61
2023/05/28 04:48:27;;;;;;;24.33;8.18;;;12.20;99.90;;;;;;5045399;28;20033;-61
2023/05/28 04:50:53;;;;;;;20.75;7.53;;;12.20;99.90;;;;;;5038299;28;20072;-61
2023/05/28 04:53:19;;;;;;;22.05;7.15;;;12.20;99.90;;;;;;5038697;28;20395;-61
2023/05/28 04:55:45;;;;;;;18.65;6.63;;;12.20;99.90;;;;;;5047885;28;20452;-61
2023/05/28 04:58:10;;;;;;;19.08;7.63;;;12.30;99.90;;;;;;5044447;28;20029;-61
2023/05/28 05:00:36;;;;;;;18.77;6.65;;;12.30;99.90;;;;;;5042303;28;20533;-62
2023/05/28 05:03:03;;;;;;;19.70;7.43;;;12.30;99.90;;;;;;5035959;28;20033;-63
2023/05/28 05:05:28;;;;;;;20.63;7.32;;;12.30;99.90;;;;;;5026013;28;20041;-61
2023/05/28 05:07:54;;;;;;;14.80;6.75;;;12.30;99.90;;;;;;5013203;28;20522;-61
2023/05/28 05:10:20;;;;;;;19.65;7.45;;;12.40;99.90;;;;;;5039452;28;20049;-65
2023/05/28 05:12:45;;;;;;;15.43;7.05;;;12.40;99.90;;;;;;5023720;28;20040;-63
2023/05/28 05:15:11;;;;;;;18.20;8.02;;;12.40;99.90;;;;;;5033328;28;20033;-63
2023/05/28 05:17:36;;;;;;;18.50;7.32;;;12.40;99.90;;;;;;5015478;28;20072;-63
2023/05/28 05:20:07;;;;;;;18.73;7.13;;;12.40;99.90;;;;;;5020116;28;20115;-63
2023/05/28 05:22:32;;;;;;;18.38;6.68;;;12.40;99.90;;;;;;5025237;28;20044;-63
2023/05/28 05:24:58;;;;;;;17.10;7.88;;;12.50;99.90;;;;;;5032868;28;20037;-63
2023/05/28 05:27:24;;;;;;;18.77;7.25;;;12.60;99.90;;;;;;5019354;28;20042;-62
2023/05/28 05:29:49;;;;;;;19.73;8.18;;;12.60;99.90;;;;;;5039313;28;20514;-63
2023/05/28 05:32:15;;;;;;;19.17;7.28;;;12.60;99.90;;;;;;5047515;28;20427;-63
2023/05/28 05:34:40;;;;;;;20.25;7.47;;;12.60;99.90;;;;;;5024275;28;20502;-63
2023/05/28 05:37:06;;;;;;;16.10;7.03;;;12.50;99.90;;;;;;5031792;28;20036;-63
2023/05/28 05:39:32;;;;;;;15.82;7.13;;;12.70;99.90;;;;;;5026962;28;20047;-62
2023/05/28 05:41:58;;;;;;;19.27;7.70;;;12.70;99.90;;;;;;5023656;28;20045;-63
2023/05/28 05:44:23;;;;;;;20.52;8.25;;;12.80;99.90;;;;;;5016795;28;20037;-63
2023/05/28 05:46:49;;;;;;;20.50;7.03;;;12.80;99.90;;;;;;5015540;28;20235;-63
2023/05/28 05:49:15;;;;;;;17.98;7.60;;;12.90;99.90;;;;;;5034486;28;20045;-63
2023/05/28 05:51:40;;;;;;;18.08;7.28;;;12.90;99.90;;;;;;5033054;28;20381;-63
2023/05/28 05:54:06;;;;;;;23.88;7.57;;;13.00;99.90;;;;;;5042214;28;20120;-63
2023/05/28 05:56:32;;;;;;;20.27;7.00;;;13.00;99.90;;;;;;5032397;28;20475;-63
2023/05/28 05:58:58;;;;;;;20.88;7.28;;;13.10;99.90;;;;;;5044005;28;20042;-63
2023/05/28 06:01:24;;;;;;;20.13;7.10;;;13.20;99.90;;;;;;5033991;28;20037;-63
2023/05/28 06:03:50;;;;;;;20.38;6.97;;;13.20;99.90;;;;;;5045236;28;20407;-63
2023/05/28 06:06:16;;;;;;;20.25;7.45;;;13.20;99.90;;;;;;5032435;28;20116;-63
2023/05/28 06:08:42;;;;;;;18.80;7.05;;;13.30;99.90;;;;;;5024688;28;20136;-63
2023/05/28 06:11:09;;;;;;;19.05;6.53;;;13.40;99.90;;;;;;5028035;28;20040;-63
2023/05/28 06:13:35;;;;;;;19.25;7.70;;;13.40;99.90;;;;;;5014421;28;20511;-63
2023/05/28 06:16:02;;;;;;;17.33;6.93;;;13.50;99.90;;;;;;5028329;28;20053;-63
2023/05/28 06:18:29;;;;;;;17.92;6.75;;;13.60;99.90;;;;;;5033300;28;20038;-63
2023/05/28 06:20:55;;;;;;;16.90;6.78;;;13.60;99.90;;;;;;5013157;28;20046;-63
2023/05/28 06:23:21;;;;;;;19.27;6.88;;;13.70;99.90;;;;;;5038055;28;20511;-63
2023/05/28 06:25:47;;;;;;;16.27;6.60;;;13.70;99.90;;;;;;5031918;28;20112;-63
2023/05/28 06:28:13;;;;;;;15.60;6.72;;;13.80;99.90;;;;;;5023277;28;20116;-63
2023/05/28 06:30:42;;;;;;;21.70;7.00;;;13.80;99.90;;;;;;5039920;28;20041;-63
2023/05/28 06:33:09;;;;;;;22.05;7.00;;;13.90;99.90;;;;;;5016670;28;20037;-62
2023/05/28 06:35:35;;;;;;;17.13;5.93;;;13.90;99.90;;;;;;5044722;28;20037;-63
2023/05/28 06:38:01;;;;;;;16.17;6.53;;;14.00;99.90;;;;;;5019463;28;20483;-64
2023/05/28 06:40:27;;;;;;;20.20;7.03;;;13.90;99.90;;;;;;5027404;28;20050;-63
2023/05/28 06:42:52;;;;;;;16.00;6.18;;;14.10;99.90;;;;;;5041673;28;20029;-62
2023/05/28 06:45:18;;;;;;;16.83;6.80;;;14.00;99.90;;;;;;5025012;28;20043;-64
2023/05/28 06:47:47;;;;;;;14.23;6.22;;;14.10;99.90;;;;;;5034002;28;20053;-63
2023/05/28 06:50:12;;;;;;;13.55;6.00;;;14.10;99.90;;;;;;5023728;28;20041;-62
2023/05/28 06:52:38;;;;;;;18.70;6.75;;;14.10;99.90;;;;;;5031646;28;20030;-64
2023/05/28 06:55:05;;;;;;;16.83;6.18;;;14.20;99.90;;;;;;5016659;28;20406;-64
2023/05/28 06:57:36;;;;;;;19.20;5.85;;;14.20;99.90;;;;;;5032532;28;20065;-63
2023/05/28 07:00:13;;;;;;;18.08;6.32;;;14.20;99.90;;;;;;5035100;28;20037;-65
2023/05/28 07:02:38;;;;;;;16.52;6.22;;;14.20;99.90;;;;;;5038798;28;20083;-63
2023/05/28 07:05:04;;;;;;;16.02;5.85;;;14.20;99.90;;;;;;5044670;28;20065;-64
2023/05/28 07:07:31;;;;;;;15.45;5.82;;;14.20;99.90;;;;;;5031129;28;20484;-63
2023/05/28 07:09:56;;;;;;;17.83;6.82;;;14.20;99.90;;;;;;5033140;28;20072;-64
2023/05/28 07:12:22;;;;;;;19.63;6.68;;;14.30;99.90;;;;;;5041002;28;20068;-64
2023/05/28 07:14:48;;;;;;;17.88;6.72;;;14.30;99.90;;;;;;5031326;28;20068;-64
2023/05/28 07:17:13;;;;;;;19.15;6.75;;;14.40;99.90;;;;;;5030840;28;20056;-64
2023/05/28 07:19:39;;;;;;;15.60;6.25;;;14.40;99.90;;;;;;5013239;28;20102;-63
2023/05/28 07:22:05;;;;;;;18.13;5.93;;;14.50;99.90;;;;;;5047600;28;20041;-64
2023/05/28 07:24:30;;;;;;;16.67;6.80;;;14.50;99.90;;;;;;5038345;28;20045;-63
2023/05/28 07:26:56;;;;;;;13.55;5.63;;;14.50;99.90;;;;;;5021315;28;20041;-64
2023/05/28 07:29:22;;;;;;;14.65;6.00;;;14.60;99.90;;;;;;5018890;28;20503;-63
2023/05/28 07:31:47;;;;;;;14.00;5.55;;;14.70;99.90;;;;;;5020807;28;20495;-61
2023/05/28 07:34:13;;;;;;;16.42;5.90;;;14.70;99.90;;;;;;5030777;28;20033;-64
2023/05/28 07:36:38;;;;;;;15.38;6.05;;;14.70;99.90;;;;;;5024354;28;20045;-63
2023/05/28 07:39:04;;;;;;;16.75;6.30;;;14.80;99.90;;;;;;5014516;28;20558;-63
2023/05/28 07:41:30;;;;;;;19.00;6.20;;;14.90;99.90;;;;;;5029272;28;20095;-63
2023/05/28 07:43:56;;;;;;;17.73;6.78;;;14.90;99.90;;;;;;5038193;28;20446;-61
2023/05/28 07:46:22;;;;;;;13.93;5.40;;;14.90;99.90;;;;;;5020653;28;20038;-63
2023/05/28 07:48:48;;;;;;;17.55;6.03;;;15.00;99.90;;;;;;5028435;28;20029;-64
2023/05/28 07:51:14;;;;;;;16.10;6.07;;;15.00;99.90;;;;;;5032267;28;20404;-62
2023/05/28 07:53:40;;;;;;;16.95;6.20;;;15.10;99.90;;;;;;5036657;28;20043;-62
2023/05/28 07:56:06;;;;;;;15.55;6.57;;;15.10;99.90;;;;;;5013677;28;20064;-64
2023/05/28 07:58:31;;;;;;;11.95;5.43;;;15.20;99.90;;;;;;5012856;28;20033;-64
2023/05/28 08:00:57;;;;;;;17.92;5.70;;;15.30;99.90;;;;;;5034422;28;20063;-64
2023/05/28 08:03:26;;;;;;;17.42;5.93;;;15.30;99.90;;;;;;5030734;28;20037;-63
2023/05/28 08:05:52;;;;;;;19.20;7.47;;;15.40;99.90;;;;;;5038276;28;20099;-63
2023/05/28 08:08:18;;;;;;;13.75;5.65;;;15.40;99.90;;;;;;5016127;28;20480;-64
2023/05/28 08:10:43;;;;;;;15.70;5.95;;;15.50;99.90;;;;;;5027272;28;20041;-64
2023/05/28 08:13:09;;;;;;;17.55;6.35;;;15.60;99.90;;;;;;5030094;28;20106;-62
2023/05/28 08:15:36;;;;;;;17.13;5.93;;;15.60;99.90;;;;;;5044424;28;20035;-62
2023/05/28 08:18:02;;;;;;;18.90;5.60;;;15.70;99.90;;;;;;5006595;28;20037;-64
2023/05/28 08:20:29;;;;;;;15.13;5.57;;;15.90;99.90;;;;;;5012887;28;20549;-63
2023/05/28 08:22:54;;;;;;;14.23;6.20;;;16.10;99.90;;;;;;5037344;28;20530;-63
2023/05/28 08:25:20;;;;;;;18.23;6.40;;;16.30;99.90;;;;;;5039407;28;20037;-64
2023/05/28 08:27:46;;;;;;;16.13;5.65;;;16.60;99.90;;;;;;5030592;28;20032;-63
2023/05/28 08:30:12;;;;;;;16.55;6.00;;;16.80;99.90;;;;;;5041934;28;20041;-64
2023/05/28 08:32:37;;;;;;;11.52;5.80;;;17.20;99.90;;;;;;5034114;28;20029;-62
2023/05/28 08:35:03;;;;;;;18.23;6.05;;;17.50;99.90;;;;;;5017969;28;20041;-64
2023/05/28 08:37:29;;;;;;;15.15;6.47;;;17.70;99.90;;;;;;5030194;28;20033;-64
2023/05/28 08:39:55;;;;;;;14.57;5.88;;;17.90;99.90;;;;;;5030340;28;20077;-64
2023/05/28 08:42:20;;;;;;;15.73;6.68;;;18.10;99.90;;;;;;5024711;28;20083;-63
2023/05/28 08:44:46;;;;;;;16.60;6.13;;;18.40;99.90;;;;;;5030528;28;20029;-64
2023/05/28 08:47:13;;;;;;;15.20;6.25;;;18.60;99.90;;;;;;5049489;28;20032;-63
2023/05/28 08:49:45;;;;;;;15.52;5.93;;;18.80;99.90;;;;;;5034032;28;20029;-64
2023/05/28 08:52:15;;;;;;;11.52;5.70;;;19.00;99.90;;;;;;5033784;28;20041;-64
2023/05/28 08:54:41;;;;;;;16.23;6.03;;;19.20;99.90;;;;;;5044669;28;20041;-62
2023/05/28 08:57:07;;;;;;;14.25;6.07;;;19.40;99.90;;;;;;5033514;28;20040;-64
2023/05/28 08:59:33;;;;;;;18.35;6.47;;;19.60;99.90;;;;;;5037800;28;20498;-64
2023/05/28 09:01:59;;;;;;;12.90;6.00;;;19.80;99.90;;;;;;5028263;28;20515;-64
2023/05/28 09:04:25;;;;;;;16.27;6.43;;;20.00;99.90;;;;;;5037796;28;20488;-64
2023/05/28 09:06:51;;;;;;;12.95;6.25;;;20.30;99.90;;;;;;5043081;28;20040;-64
2023/05/28 09:09:17;;;;;;;15.20;6.32;;;20.50;99.90;;;;;;5040496;28;20038;-63
2023/05/28 09:11:43;;;;;;;11.85;5.75;;;20.70;99.90;;;;;;5015136;28;20037;-65
2023/05/28 09:14:13;;;;;;;14.63;5.90;;;20.90;99.90;;;;;;5033090;28;20037;-64
2023/05/28 09:16:43;;;;;;;11.88;5.70;;;21.10;99.90;;;;;;5041186;28;20034;-64
2023/05/28 09:19:09;;;;;;;13.80;6.40;;;21.30;99.90;;;;;;5039018;28;20041;-64
2023/05/28 09:21:38;;;;;;;12.65;6.47;;;21.40;99.80;;;;;;5036593;28;20064;-64
2023/05/28 09:24:05;;;;;;;15.60;6.93;;;21.50;99.20;;;;;;5035317;28;20065;-64
2023/05/28 09:26:32;;;;;;;14.27;6.97;;;21.60;99.10;;;;;;5039283;28;20095;-65
2023/05/28 09:28:58;;;;;;;13.52;6.63;;;21.70;98.20;;;;;;5043458;28;20065;-64
2023/05/28 09:31:34;;;;;;;14.85;6.78;;;21.80;97.80;;;;;;5029373;28;20127;-64
2023/05/28 09:34:03;;;;;;;12.43;6.30;;;21.90;97.00;;;;;;5025906;28;20052;-65
2023/05/28 09:36:30;;;;;;;11.35;6.35;;;22.00;97.20;;;;;;5047773;28;20052;-63
2023/05/28 09:38:56;;;;;;;14.50;6.30;;;22.10;96.60;;;;;;5036079;28;20453;-64
2023/05/28 09:41:25;;;;;;;10.75;6.03;;;22.20;96.10;;;;;;5037718;28;20145;-64
2023/05/28 09:44:01;;;;;;;12.10;6.63;;;22.20;95.60;;;;;;5018123;28;20492;-64
2023/05/28 09:46:36;;;;;;;11.55;6.00;;;22.40;94.30;;;;;;5009848;28;20038;-64
2023/05/28 09:49:03;;;;;;;15.20;6.10;;;22.50;93.80;;;;;;5020954;28;20509;-64
2023/05/28 09:51:31;;;;;;;13.45;5.85;;;22.60;94.10;;;;;;5008357;28;20491;-64
2023/05/28 09:54:06;;;;;;;9.57;5.75;;;22.60;93.50;;;;;;5039732;28;20161;-63
2023/05/28 09:56:33;;;;;;;12.18;5.57;;;22.70;92.50;;;;;;5028170;28;20041;-64
2023/05/28 09:59:01;;;;;;;15.40;6.45;;;22.70;92.80;;;;;;5033145;28;20042;-65
2023/05/28 10:01:37;;;;;;;10.68;5.68;;;22.80;92.70;;;;;;5030809;28;20053;-64
2023/05/28 10:04:08;;;;;;;11.43;5.70;;;22.90;92.60;;;;;;5016643;28;20130;-64
2023/05/28 10:06:37;;;;;;;13.70;5.47;;;23.00;92.10;;;;;;5031110;28;20058;-64
2023/05/28 10:09:04;;;;;;;9.32;5.43;;;23.00;92.30;;;;;;5025867;28;20041;-64
2023/05/28 10:11:39;;;;;;;10.10;5.25;;;23.10;92.00;;;;;;4998838;28;20037;-64
2023/05/28 10:14:06;;;;;;;11.93;4.95;;;23.30;91.40;;;;;;4995155;28;20069;-64
2023/05/28 10:16:32;;;;;;;12.60;5.68;;;23.40;91.70;;;;;;5034767;28;20049;-64
2023/05/28 10:18:57;;;;;;;8.98;5.10;;;23.50;91.30;;;;;;5014439;28;20549;-65
2023/05/28 10:21:24;;;;;;;9.93;4.60;;;23.60;91.10;;;;;;5031690;28;20060;-65
2023/05/28 10:23:50;;;;;;;11.07;5.30;;;23.60;90.90;;;;;;5039861;28;20350;-65
2023/05/28 10:26:16;;;;;;;11.18;5.10;;;23.80;90.70;;;;;;5034558;28;20115;-65
2023/05/28 10:28:43;;;;;;;10.75;4.68;;;23.80;90.40;;;;;;5031751;28;20030;-63
2023/05/28 10:31:10;;;;;;;9.75;4.97;;;23.90;90.00;;;;;;5021793;28;20068;-64
2023/05/28 10:33:43;;;;;;;9.38;5.18;;;24.10;89.20;;;;;;5022528;28;20041;-65
2023/05/28 10:36:11;;;;;;;9.15;5.43;;;24.10;88.30;;;;;;5014264;28;20033;-64
2023/05/28 10:38:44;;;;;;;9.55;5.50;;;24.10;89.00;;;;;;5020071;28;20112;-64
2023/05/28 10:41:10;;;;;;;9.45;5.00;;;24.30;87.60;;;;;;5009729;28;20051;-64
2023/05/28 10:43:42;;;;;;;10.25;4.72;;;24.50;88.10;;;;;;5016463;28;20132;-65
2023/05/28 10:46:14;;;;;;;9.50;4.82;;;24.50;85.60;;;;;;5039685;28;20037;-65
2023/05/28 10:48:41;;;;;;;9.73;4.65;;;24.60;84.30;;;;;;5040991;28;20095;-65
2023/05/28 10:51:07;;;;;;;8.88;4.82;;;24.60;84.30;;;;;;5039669;28;20080;-62
2023/05/28 10:53:33;;;;;;;9.70;4.95;;;24.60;83.60;;;;;;5013534;28;20125;-63
2023/05/28 10:56:01;;;;;;;11.32;4.78;;;24.70;82.70;;;;;;5015057;28;20136;-65
2023/05/28 10:58:35;;;;;;;13.70;5.38;;;24.70;80.60;;;;;;5036860;28;20048;-64
2023/05/28 11:01:03;;;;;;;11.52;5.38;;;24.80;78.90;;;;;;5041412;28;20041;-64
2023/05/28 11:03:40;;;;;;;13.25;5.70;;;24.80;79.50;;;;;;5043602;28;20120;-64
2023/05/28 11:06:07;;;;;;;8.55;4.97;;;24.80;78.40;;;;;;5021176;28;20045;-64
2023/05/28 11:08:44;;;;;;;9.93;4.53;;;24.90;77.80;;;;;;5044796;28;20041;-65
2023/05/28 11:11:17;;;;;;;9.73;4.88;;;25.00;76.50;;;;;;5027151;28;20041;-64
2023/05/28 11:13:47;;;;;;;9.45;5.20;;;25.10;75.70;;;;;;5038545;28;20038;-64
2023/05/28 11:16:15;;;;;;;8.00;4.97;;;25.10;74.90;;;;;;5033015;28;20048;-65
2023/05/28 11:19:01;;;;;;;8.35;4.72;;;25.20;73.80;;;;;;5039793;28;20037;-62
2023/05/28 11:21:26;;;;;;;9.90;5.15;;;25.30;72.00;;;;;;5038106;28;20399;-65
2023/05/28 11:24:10;;;;;;;11.30;5.40;;;25.20;72.20;;;;;;5043683;28;20041;-64
2023/05/28 11:26:35;;;;;;;9.25;5.03;;;25.30;69.80;;;;;;5018246;28;20040;-65
2023/05/28 11:29:02;;;;;;;8.98;5.43;;;25.30;71.50;;;;;;5035007;28;20037;-64
2023/05/28 11:31:28;;;;;;;8.82;5.18;;;25.40;70.50;;;;;;5037367;28;20395;-64
2023/05/28 11:33:55;;;;;;;11.07;5.55;;;25.40;69.40;;;;;;5034753;28;20052;-62
2023/05/28 11:36:21;;;;;;;10.15;4.95;;;25.50;69.30;;;;;;5045050;28;20086;-64
2023/05/28 11:38:47;;;;;;;9.35;4.95;;;25.50;68.60;;;;;;5033205;28;20112;-64
2023/05/28 11:41:13;;;;;;;9.57;4.57;;;25.60;68.20;;;;;;5017108;28;20037;-64
2023/05/28 11:43:38;;;;;;;7.75;4.90;;;25.60;67.40;;;;;;5033478;28;20037;-63
2023/05/28 11:46:05;;;;;;;8.38;5.07;;;25.70;67.10;;;;;;5038030;28;20061;-65
2023/05/28 11:48:37;;;;;;;8.75;5.20;;;25.80;66.50;;;;;;5030776;28;20037;-65
2023/05/28 11:51:02;;;;;;;8.52;4.68;;;25.80;65.80;;;;;;5017036;28;20037;-64
2023/05/28 11:53:43;;;;;;;8.27;4.80;;;25.90;66.20;;;;;;5038908;28;20040;-65
2023/05/28 11:56:10;;;;;;;8.65;4.90;;;25.90;63.90;;;;;;5022336;28;20539;-65
2023/05/28 11:58:43;;;;;;;13.70;5.00;;;25.90;64.80;;;;;;5033502;28;20083;-64
2023/05/28 12:01:16;;;;;;;9.10;4.68;;;26.00;63.70;;;;;;5028771;28;20126;-65
2023/05/28 12:03:42;;;;;;;7.10;4.53;;;26.00;63.20;;;;;;5025683;28;20030;-64
2023/05/28 12:06:08;;;;;;;9.45;4.82;;;26.00;62.80;;;;;;5040322;28;20029;-65
2023/05/28 12:08:33;;;;;;;9.02;4.63;;;26.10;62.50;;;;;;5017197;28;20033;-64
2023/05/28 12:11:02;;;;;;;9.82;4.85;;;26.10;61.60;;;;;;5010312;28;20479;-64
2023/05/28 12:13:35;;;;;;;7.15;4.90;;;26.00;60.60;;;;;;5042337;28;20470;-65
2023/05/28 12:16:10;;;;;;;8.68;5.25;;;26.00;59.80;;;;;;5007220;28;20463;-65
2023/05/28 12:18:43;;;;;;;9.73;5.40;;;25.90;59.80;;;;;;5028310;28;20033;-65
2023/05/28 12:21:13;;;;;;;8.43;5.10;;;25.90;58.60;;;;;;5021472;28;20052;-65
2023/05/28 12:23:38;;;;;;;7.65;4.95;;;25.90;58.90;;;;;;5035003;28;20515;-65
2023/05/28 12:26:10;;;;;;;10.63;5.50;;;25.80;58.60;;;;;;5037822;28;20033;-65
2023/05/28 12:28:39;;;;;;;8.55;5.05;;;25.90;57.90;;;;;;5044721;28;20503;-63
2023/05/28 12:31:05;;;;;;;7.45;5.32;;;25.90;57.70;;;;;;5047127;28;20036;-64
2023/05/28 12:33:31;;;;;;;7.97;5.32;;;25.90;57.30;;;;;;5069244;22;20547;-61
2023/05/28 12:35:57;;;;;;;7.57;5.30;;;25.90;56.70;;;;;;5026290;28;20041;-61